Time;durP1;ratioP1;P1;durP2;ratioP2;P2;SDS_P1;SDS_P2;PMS_P1;PMS_P2;Temp;Humidity;BMP_temperature;BMP_pressure;BME280_temperature;BME280_humidity;BME280_pressure;Samples;Min_cycle;Max_cycle;Signal;HPM_P1;HPM_P2
2021/01/20 00:00:13;;;;;;;84.37;34.40;;;;;;;-7.43;62.01;101040.66;121751;1141;104334;-77
2021/01/20 00:03:02;;;;;;;87.83;34.87;;;;;;;-7.45;61.58;101042.09;121679;1141;105495;-77
2021/01/20 00:05:31;;;;;;;87.90;33.30;;;;;;;-7.47;60.75;101039.38;121703;1140;104457;-76
2021/01/20 00:08:00;;;;;;;84.50;34.37;;;;;;;-7.50;62.47;101045.77;121746;1141;104404;-77
2021/01/20 00:10:29;;;;;;;72.53;29.90;;;;;;;-7.53;61.57;101050.51;121719;1140;104435;-76
2021/01/20 00:12:58;;;;;;;82.87;32.70;;;;;;;-7.55;61.70;101045.23;121759;1141;104341;-77
2021/01/20 00:15:27;;;;;;;80.27;31.97;;;;;;;-7.54;61.71;101059.81;121721;1140;104483;-77
2021/01/20 00:17:56;;;;;;;78.73;30.57;;;;;;;-7.56;62.33;101055.25;121674;1141;104364;-77
2021/01/20 00:20:25;;;;;;;76.33;30.03;;;;;;;-7.54;62.07;101051.23;121754;1141;104342;-77
2021/01/20 00:22:54;;;;;;;78.30;30.97;;;;;;;-7.54;61.56;101048.68;121724;1141;104345;-77
2021/01/20 00:25:23;;;;;;;74.83;30.80;;;;;;;-7.54;61.58;101051.23;121735;1140;104341;-77
2021/01/20 00:27:52;;;;;;;82.17;30.97;;;;;;;-7.55;61.10;101042.69;121726;1141;104361;-77
2021/01/20 00:30:22;;;;;;;80.87;32.20;;;;;;;-7.54;60.76;101053.78;121683;1141;104465;-77
2021/01/20 00:32:51;;;;;;;74.30;30.90;;;;;;;-7.59;61.88;101051.63;121715;1141;104915;-77
2021/01/20 00:35:22;;;;;;;78.23;30.80;;;;;;;-7.63;61.40;101054.54;121781;1141;104420;-77
2021/01/20 00:37:51;;;;;;;78.90;30.80;;;;;;;-7.65;62.31;101055.08;121724;1141;104385;-77
2021/01/20 00:40:20;;;;;;;82.57;32.83;;;;;;;-7.72;61.27;101042.38;121743;1141;104352;-77
2021/01/20 00:42:49;;;;;;;75.33;32.03;;;;;;;-7.78;62.40;101046.00;121682;1141;104457;-76
2021/01/20 00:45:18;;;;;;;73.10;30.90;;;;;;;-7.84;60.77;101046.94;121699;1140;104378;-76
2021/01/20 00:47:50;;;;;;;76.60;30.60;;;;;;;-7.88;62.04;101050.78;121715;1141;104401;-77
2021/01/20 00:50:20;;;;;;;78.47;31.03;;;;;;;-7.86;62.34;101046.76;121770;1139;104460;-76
2021/01/20 00:52:49;;;;;;;77.70;31.30;;;;;;;-7.84;61.66;101050.38;121694;1141;105068;-77
2021/01/20 00:55:18;;;;;;;77.40;30.43;;;;;;;-7.83;62.51;101051.32;121694;1141;104458;-76
2021/01/20 00:57:51;;;;;;;79.77;32.87;;;;;;;-7.84;61.75;101046.94;121740;1140;104336;-76
2021/01/20 01:00:22;;;;;;;77.17;32.47;;;;;;;-7.83;62.50;101049.67;121665;1141;104389;-76
2021/01/20 01:02:51;;;;;;;81.57;32.33;;;;;;;-7.82;61.30;101042.92;121766;1141;104338;-78
2021/01/20 01:05:21;;;;;;;81.53;33.43;;;;;;;-7.81;62.19;101037.11;121769;1141;104447;-77
2021/01/20 01:07:55;;;;;;;68.33;29.65;;;;;;;-7.83;62.59;101036.92;121763;1141;104459;-78
2021/01/20 01:10:24;;;;;;;83.90;33.57;;;;;;;-7.83;62.65;101034.38;121781;1141;104343;-78
2021/01/20 01:13:03;;;;;;;83.33;34.87;;;;;;;-7.80;61.96;101031.29;121717;1141;104398;-78
2021/01/20 01:15:33;;;;;;;77.63;32.30;;;;;;;-7.79;62.09;101038.19;121734;1140;104342;-78
2021/01/20 01:18:02;;;;;;;78.93;33.47;;;;;;;-7.78;62.47;101034.91;121747;1141;104336;-78
2021/01/20 01:20:31;;;;;;;77.45;31.05;;;;;;;-7.78;62.02;101017.98;121685;1140;104345;-78
2021/01/20 01:23:01;;;;;;;75.00;29.00;;;;;;;-7.80;61.63;100999.06;121740;1141;104404;-77
2021/01/20 01:25:30;;;;;;;80.53;31.23;;;;;;;-7.79;62.37;100993.25;121710;1141;104344;-77
2021/01/20 01:28:09;;;;;;;79.80;30.50;;;;;;;-7.79;61.84;101002.51;121696;1141;104454;-77
2021/01/20 01:30:40;;;;;;;64.43;25.90;;;;;;;-7.82;61.20;100999.61;121650;1141;104337;-77
2021/01/20 01:33:09;;;;;;;64.97;25.23;;;;;;;-7.84;61.33;101017.27;121709;1141;104357;-77
2021/01/20 01:35:41;;;;;;;74.47;28.47;;;;;;;-7.86;62.70;101017.84;121732;1141;104333;-76
2021/01/20 01:38:10;;;;;;;74.50;26.60;;;;;;;-7.88;62.22;101021.83;121728;1141;104343;-76
2021/01/20 01:40:43;;;;;;;80.83;31.60;;;;;;;-7.86;61.99;101018.73;121762;1141;104333;-77
2021/01/20 01:43:20;;;;;;;83.55;30.85;;;;;;;-7.82;62.57;101027.63;121763;1140;104335;-78
2021/01/20 01:46:09;;;;;;;71.53;30.27;;;;;;;-7.80;62.64;101023.65;121736;1140;104825;-78
2021/01/20 01:48:40;;;;;;;80.30;29.90;;;;;;;-7.76;61.87;101035.99;121744;1140;104457;-78
2021/01/20 01:51:09;;;;;;;74.27;31.10;;;;;;;-7.77;62.28;101040.19;121736;1141;104401;-78
2021/01/20 01:53:49;;;;;;;79.40;32.17;;;;;;;-7.70;62.29;101039.25;121716;1141;104470;-76
2021/01/20 01:56:27;;;;;;;75.13;27.30;;;;;;;-7.67;61.66;101036.16;121750;1141;104599;-77
2021/01/20 01:59:02;;;;;;;81.20;33.00;;;;;;;-7.69;62.47;101028.34;121706;1141;104404;-77
2021/01/20 02:01:32;;;;;;;83.70;33.27;;;;;;;-7.66;61.43;101022.70;121740;1141;104462;-77
2021/01/20 02:04:03;;;;;;;64.30;24.93;;;;;;;-7.63;61.83;101020.52;121708;1141;104340;-77
2021/01/20 02:06:39;;;;;;;77.77;30.43;;;;;;;-7.68;62.26;101016.50;121564;1141;104344;-77
2021/01/20 02:09:24;;;;;;;71.20;28.00;;;;;;;-7.74;61.80;101016.72;121700;1141;104335;-77
2021/01/20 02:12:20;;;;;;;76.37;30.00;;;;;;;-7.75;62.96;101012.34;121567;1141;104455;-77
2021/01/20 02:15:02;;;;;;;74.57;30.53;;;;;;;-7.72;61.18;101017.80;121727;1141;104341;-77
2021/01/20 02:17:43;;;;;;;74.85;29.07;;;;;;;-7.72;62.49;101010.14;121765;1141;104348;-78
2021/01/20 02:20:33;;;;;;;74.90;30.17;;;;;;;-7.71;62.24;101017.07;121736;1141;104344;-77
2021/01/20 02:23:07;;;;;;;76.17;30.50;;;;;;;-7.68;62.27;101012.33;121725;1140;104452;-77
2021/01/20 02:26:12;;;;;;;74.37;30.10;;;;;;;-7.62;62.22;101010.49;121715;1141;104442;-77
2021/01/20 02:29:16;;;;;;;80.20;31.97;;;;;;;-7.57;61.88;101012.64;121685;1141;104431;-76
2021/01/20 02:31:52;;;;;;;84.77;31.47;;;;;;;-7.55;63.01;101011.20;121736;1140;104341;-77
2021/01/20 02:34:23;;;;;;;73.33;28.63;;;;;;;-7.56;61.49;101015.37;121724;1141;104371;-77
2021/01/20 02:36:54;;;;;;;69.47;27.47;;;;;;;-7.59;62.23;101021.04;121752;1141;104467;-78
2021/01/20 02:39:45;;;;;;;64.20;25.70;;;;;;;-7.60;61.85;101010.67;121713;1141;104436;-78
2021/01/20 02:42:29;;;;;;;65.77;24.07;;;;;;;-7.68;62.56;101007.23;121713;1141;104401;-77
2021/01/20 02:45:06;;;;;;;62.67;23.13;;;;;;;-7.69;63.13;101014.70;121731;1141;104336;-77
2021/01/20 02:47:44;;;;;;;74.97;28.77;;;;;;;-7.74;63.14;101018.33;121728;1141;104398;-77
2021/01/20 02:50:17;;;;;;;64.13;25.03;;;;;;;-7.75;63.05;101019.09;121726;1141;104335;-77
2021/01/20 02:53:01;;;;;;;76.43;29.70;;;;;;;-7.75;61.88;101021.64;121711;1140;104393;-77
2021/01/20 02:55:54;;;;;;;70.93;26.63;;;;;;;-7.72;63.28;101017.80;121734;1139;104563;-77
2021/01/20 02:58:47;;;;;;;74.40;29.33;;;;;;;-7.70;63.35;101016.31;121713;1141;104341;-78
2021/01/20 03:01:40;;;;;;;77.67;30.00;;;;;;;-7.68;63.29;101021.59;121739;1141;104429;-77
2021/01/20 03:04:09;;;;;;;73.40;27.73;;;;;;;-7.65;63.26;101016.84;121711;1140;104420;-77
2021/01/20 03:06:40;;;;;;;76.30;28.80;;;;;;;-7.64;62.61;101011.03;121704;1140;104332;-77
2021/01/20 03:09:10;;;;;;;75.50;29.97;;;;;;;-7.66;61.91;101009.96;121729;1141;104367;-76
2021/01/20 03:11:48;;;;;;;61.23;22.53;;;;;;;-7.63;63.34;101005.22;121720;1141;104335;-77
2021/01/20 03:14:19;;;;;;;74.53;29.00;;;;;;;-7.62;63.25;101010.49;121730;1141;104328;-79
2021/01/20 03:16:48;;;;;;;71.43;29.33;;;;;;;-7.63;62.97;101013.77;121717;1141;104457;-77
2021/01/20 03:19:17;;;;;;;70.10;29.07;;;;;;;-7.57;63.51;101016.13;121667;1141;104360;-76
2021/01/20 03:21:46;;;;;;;79.00;31.90;;;;;;;-7.57;63.60;101007.54;121726;1141;104330;-77
2021/01/20 03:24:15;;;;;;;67.70;24.73;;;;;;;-7.57;63.25;101017.73;121693;1141;104330;-77
2021/01/20 03:26:44;;;;;;;71.57;27.20;;;;;;;-7.60;63.38;101013.22;121744;1141;104362;-77
2021/01/20 03:29:13;;;;;;;76.40;29.33;;;;;;;-7.60;62.52;101009.02;121683;1141;104498;-77
2021/01/20 03:31:42;;;;;;;76.10;28.37;;;;;;;-7.59;63.30;101010.84;121700;1141;104675;-77
2021/01/20 03:34:11;;;;;;;73.23;29.87;;;;;;;-7.57;63.51;101007.54;121721;1140;104358;-77
2021/01/20 03:36:40;;;;;;;73.27;29.13;;;;;;;-7.55;62.74;101018.84;121725;1141;104340;-77
2021/01/20 03:39:09;;;;;;;73.55;27.00;;;;;;;-7.50;62.19;101010.08;121743;1141;104436;-77
2021/01/20 03:41:37;;;;;;;74.80;30.13;;;;;;;-7.49;62.30;101011.91;121733;1141;104500;-77
2021/01/20 03:44:07;;;;;;;73.03;29.07;;;;;;;-7.45;62.39;101014.05;121715;1141;104426;-77
2021/01/20 03:46:36;;;;;;;64.07;23.03;;;;;;;-7.46;62.84;101012.26;121775;1141;104460;-77
2021/01/20 03:49:05;;;;;;;70.93;27.90;;;;;;;-7.49;62.91;101011.91;121730;1141;104404;-77
2021/01/20 03:51:34;;;;;;;65.37;26.07;;;;;;;-7.49;62.18;101004.26;121692;1140;104340;-77
2021/01/20 03:54:03;;;;;;;68.57;25.93;;;;;;;-7.51;62.24;101009.17;121623;1140;104455;-77
2021/01/20 03:56:32;;;;;;;78.47;28.73;;;;;;;-7.50;62.16;101007.53;121587;1140;104377;-77
2021/01/20 03:59:00;;;;;;;65.67;26.47;;;;;;;-7.49;63.33;101015.35;121634;1140;104664;-78
2021/01/20 04:01:29;;;;;;;71.83;26.87;;;;;;;-7.49;62.62;101006.81;121682;1141;104361;-77
2021/01/20 04:03:58;;;;;;;75.50;29.53;;;;;;;-7.50;63.01;101010.97;121729;1141;104339;-77
2021/01/20 04:06:34;;;;;;;78.20;31.10;;;;;;;-7.51;62.77;101016.83;121713;1141;104335;-77
2021/01/20 04:09:06;;;;;;;73.30;29.07;;;;;;;-7.48;62.36;101014.63;121702;1140;104343;-77
2021/01/20 04:11:35;;;;;;;76.37;28.73;;;;;;;-7.49;63.68;101017.00;121726;1140;104404;-77
2021/01/20 04:14:04;;;;;;;74.13;28.67;;;;;;;-7.51;63.35;101010.80;121742;1141;104422;-77
2021/01/20 04:16:33;;;;;;;63.03;25.10;;;;;;;-7.52;62.98;101007.35;121680;1141;104528;-77
2021/01/20 04:19:02;;;;;;;70.53;25.37;;;;;;;-7.57;63.01;101007.54;121722;1141;104364;-80
2021/01/20 04:21:32;;;;;;;69.07;27.00;;;;;;;-7.62;63.00;101009.56;121646;1140;104457;-77
2021/01/20 04:24:04;;;;;;;67.17;24.50;;;;;;;-7.64;63.67;101011.93;121685;1141;104353;-76
2021/01/20 04:26:34;;;;;;;74.37;29.00;;;;;;;-7.68;63.78;101012.33;121722;1140;104333;-77
2021/01/20 04:29:03;;;;;;;74.90;28.47;;;;;;;-7.68;62.41;101019.05;121717;1141;104329;-78
2021/01/20 04:31:47;;;;;;;72.37;27.43;;;;;;;-7.67;62.76;101015.78;121631;1141;104602;-80
2021/01/20 04:34:18;;;;;;;65.43;22.57;;;;;;;-7.65;64.06;101014.30;121663;1141;104485;-77
2021/01/20 04:36:47;;;;;;;70.93;27.60;;;;;;;-7.68;63.05;101014.88;121668;1141;104399;-78
2021/01/20 04:39:18;;;;;;;72.27;28.93;;;;;;;-7.65;64.05;101016.84;121172;1141;104342;-81
2021/01/20 04:41:48;;;;;;;72.13;28.80;;;;;;;-7.62;63.41;101010.49;121258;1143;104507;-78
2021/01/20 04:44:17;;;;;;;75.33;30.57;;;;;;;-7.59;63.88;101017.56;121145;1144;104397;-77
2021/01/20 04:46:47;;;;;;;72.63;27.77;;;;;;;-7.55;63.43;101022.30;121086;1143;104445;-79
2021/01/20 04:49:17;;;;;;;72.40;29.33;;;;;;;-7.52;63.60;101015.00;121377;1142;104470;-79
2021/01/20 04:51:51;;;;;;;77.03;29.73;;;;;;;-7.50;63.40;101021.17;121251;1143;104540;-77
2021/01/20 04:54:22;;;;;;;74.50;30.68;;;;;;;-7.47;63.50;101020.63;121390;1143;104865;-77
2021/01/20 04:56:51;;;;;;;75.70;29.87;;;;;;;-7.41;62.98;101023.87;121331;1143;104416;-77
2021/01/20 04:59:20;;;;;;;76.70;29.50;;;;;;;-7.35;63.62;101026.20;121344;1144;104503;-76
2021/01/20 05:01:51;;;;;;;72.43;28.73;;;;;;;-7.27;63.39;101028.02;121346;1143;104506;-77
2021/01/20 05:04:20;;;;;;;77.37;29.83;;;;;;;-7.23;64.23;101035.26;121325;1144;104359;-78
2021/01/20 05:06:49;;;;;;;72.40;27.60;;;;;;;-7.21;62.88;101033.81;121357;1143;104870;-77
2021/01/20 05:09:18;;;;;;;73.40;29.00;;;;;;;-7.20;62.89;101032.16;121350;1143;104471;-78
2021/01/20 05:11:48;;;;;;;64.33;24.57;;;;;;;-7.23;64.08;101040.36;121340;1143;104671;-78
2021/01/20 05:14:18;;;;;;;67.43;29.60;;;;;;;-7.26;63.48;101038.39;121628;1141;104454;-77
2021/01/20 05:16:50;;;;;;;75.30;31.27;;;;;;;-7.22;64.19;101043.09;121671;1141;104332;-78
2021/01/20 05:19:36;;;;;;;75.10;30.80;;;;;;;-7.18;63.58;101035.78;121667;1141;104380;-77
2021/01/20 05:22:07;;;;;;;68.70;28.60;;;;;;;-7.17;63.19;101041.06;121250;1141;104524;-78
2021/01/20 05:24:37;;;;;;;71.13;28.40;;;;;;;-7.15;62.85;101056.54;121588;1141;104343;-77
2021/01/20 05:27:07;;;;;;;66.67;24.73;;;;;;;-7.13;62.95;101045.80;121656;1141;104474;-77
2021/01/20 05:29:36;;;;;;;65.80;25.03;;;;;;;-7.15;63.24;101048.89;121719;1141;104361;-77
2021/01/20 05:32:19;;;;;;;80.67;28.97;;;;;;;-7.16;63.60;101050.54;121640;1141;104326;-76
2021/01/20 05:35:06;;;;;;;72.97;27.67;;;;;;;-7.17;63.69;101047.81;121322;1141;104498;-77
2021/01/20 05:37:46;;;;;;;71.57;28.20;;;;;;;-7.17;64.48;101050.37;121347;1141;104493;-77
2021/01/20 05:40:20;;;;;;;72.63;27.20;;;;;;;-7.15;62.89;101053.98;121161;1141;104466;-78
2021/01/20 05:42:51;;;;;;;71.33;28.93;;;;;;;-7.11;63.16;101053.62;121509;1141;104455;-78
2021/01/20 05:48:23;;;;;;;77.43;29.77;;;;;;;-7.00;63.99;101050.64;121118;1141;104611;-77
2021/01/20 05:51:30;;;;;;;69.13;28.30;;;;;;;-6.96;63.36;101051.91;121457;1140;104404;-75
2021/01/20 05:54:29;;;;;;;58.37;22.80;;;;;;;-7.00;63.26;101055.73;121838;1141;104380;-76
2021/01/20 05:57:10;;;;;;;63.30;24.90;;;;;;;-7.02;63.29;101062.32;121576;1141;104464;-78
2021/01/20 05:59:40;;;;;;;70.47;27.63;;;;;;;-7.06;64.13;101060.14;121320;1141;104466;-77
2021/01/20 06:02:10;;;;;;;66.60;25.55;;;;;;;-7.09;64.42;101057.24;121655;1141;104361;-75
2021/01/20 06:04:41;;;;;;;66.13;24.60;;;;;;;-7.15;62.96;101052.38;121611;1141;104362;-79
2021/01/20 06:07:11;;;;;;;62.67;24.00;;;;;;;-7.17;63.48;101058.91;121530;1141;104475;-77
2021/01/20 06:09:43;;;;;;;64.63;24.53;;;;;;;-7.20;63.09;101056.02;121106;1141;104352;-77
2021/01/20 06:12:14;;;;;;;53.20;19.63;;;;;;;-7.17;63.21;101063.13;121502;1141;104457;-78
2021/01/20 06:14:44;;;;;;;47.67;17.93;;;;;;;-7.19;63.62;101068.05;121297;1141;104514;-79
2021/01/20 06:17:19;;;;;;;75.90;28.25;;;;;;;-7.19;63.37;101067.15;121094;1141;104492;-76
2021/01/20 06:19:51;;;;;;;69.67;28.53;;;;;;;-7.20;64.00;101075.52;121282;1141;104329;-76
2021/01/20 06:22:22;;;;;;;69.63;28.33;;;;;;;-7.20;64.00;101078.07;121068;1141;104386;-75
2021/01/20 06:24:55;;;;;;;73.83;29.67;;;;;;;-7.15;64.47;101069.30;123309;1139;102114;-79
2021/01/20 06:27:32;;;;;;;71.30;29.43;;;;;;;-7.08;63.92;101065.07;122028;1141;103268;-80
2021/01/20 06:30:07;;;;;;;55.50;22.07;;;;;;;-7.02;64.25;101064.88;121108;1141;104365;-78
2021/01/20 06:32:41;;;;;;;70.20;26.20;;;;;;;-6.97;63.37;101057.74;121187;1141;104360;-76
2021/01/20 06:35:11;;;;;;;69.67;28.02;;;;;;;-6.92;63.77;101054.06;121141;1141;104465;-78
2021/01/20 06:37:43;;;;;;;74.37;28.40;;;;;;;-6.90;63.69;101055.16;121113;1141;104364;-77
2021/01/20 06:40:36;;;;;;;58.83;23.43;;;;;;;-6.86;64.49;101054.75;121297;1141;104624;-76
2021/01/20 06:43:39;;;;;;;75.77;29.33;;;;;;;-6.85;63.79;101050.58;120948;1141;104394;-79
2021/01/20 06:46:17;;;;;;;72.93;30.20;;;;;;;-6.81;64.84;101040.86;121106;1141;104373;-79
2021/01/20 06:49:10;;;;;;;55.87;20.07;;;;;;;-6.74;63.86;101043.38;121137;1141;104405;-79
2021/01/20 06:51:43;;;;;;;71.57;28.70;;;;;;;-6.67;64.64;101041.52;121556;1140;104329;-80
2021/01/20 06:54:15;;;;;;;70.13;27.57;;;;;;;-6.64;64.89;101039.31;121443;1140;104513;-80
2021/01/20 06:56:47;;;;;;;47.10;18.80;;;;;;;-6.63;64.24;101042.03;121119;1141;104461;-80
2021/01/20 06:59:33;;;;;;;62.40;23.57;;;;;;;-6.60;65.05;101049.14;121206;1141;104550;-78
2021/01/20 07:02:14;;;;;;;54.05;21.75;;;;;;;-6.56;64.73;101048.73;121530;1141;104338;-81
2021/01/20 07:04:54;;;;;;;78.20;30.90;;;;;;;-6.49;64.75;101050.34;121174;1141;104417;-82
2021/01/20 07:07:54;;;;;;;73.07;28.77;;;;;;;-6.42;63.54;101052.83;122400;1148;103118;-82
2021/01/20 07:10:27;;;;;;;71.47;28.20;;;;;;;-6.33;63.93;101046.19;121337;1141;104471;-80
2021/01/20 07:13:17;;;;;;;77.07;31.20;;;;;;;-6.24;64.01;101054.87;120923;1141;104360;-79
2021/01/20 07:15:54;;;;;;;66.17;25.83;;;;;;;-6.15;64.01;101058.44;120940;1141;104448;-82
2021/01/20 07:18:25;;;;;;;75.87;30.57;;;;;;;-6.07;64.23;101058.39;120818;1141;104997;-81
2021/01/20 07:20:56;;;;;;;54.60;20.00;;;;;;;-6.03;64.26;101057.97;121157;1141;104371;-79
2021/01/20 07:23:25;;;;;;;77.90;31.43;;;;;;;-6.03;64.82;101065.64;120896;1141;104372;-80
2021/01/20 07:25:55;;;;;;;73.93;30.50;;;;;;;-5.94;64.08;101065.72;121230;1141;104386;-79
2021/01/20 07:28:25;;;;;;;71.57;29.97;;;;;;;-5.89;64.66;101060.38;120949;1141;104354;-79
2021/01/20 07:31:07;;;;;;;75.93;30.67;;;;;;;-5.86;64.69;101067.45;122370;1140;104479;-80
2021/01/20 07:33:37;;;;;;;64.80;27.70;;;;;;;-5.82;63.79;101067.96;120936;1141;104399;-77
2021/01/20 07:36:19;;;;;;;80.87;31.13;;;;;;;-5.78;64.06;101075.23;121432;1141;104433;-79
2021/01/20 07:38:49;;;;;;;74.73;32.37;;;;;;;-5.72;63.94;101076.64;121060;1141;104364;-79
2021/01/20 07:41:22;;;;;;;77.37;30.33;;;;;;;-5.69;63.91;101077.87;121455;1141;104384;-77
2021/01/20 07:44:04;;;;;;;73.33;30.57;;;;;;;-5.64;64.52;101081.86;122377;1141;102569;-81
2021/01/20 07:46:36;;;;;;;69.10;28.60;;;;;;;-5.63;63.85;101077.64;121515;1141;104517;-77
2021/01/20 07:49:15;;;;;;;76.70;31.80;;;;;;;-5.60;64.53;101086.55;121477;1141;104396;-80
2021/01/20 07:51:58;;;;;;;77.73;31.33;;;;;;;-5.51;64.46;101086.65;121586;1141;104368;-79
2021/01/20 07:54:36;;;;;;;77.73;32.43;;;;;;;-5.45;64.75;101092.43;120971;1141;104343;-80
2021/01/20 07:57:08;;;;;;;75.00;32.00;;;;;;;-5.34;64.48;101087.58;121666;1141;104467;-79
2021/01/20 07:59:37;;;;;;;82.77;33.03;;;;;;;-5.27;64.00;101087.47;121143;1141;104442;-77
2021/01/20 08:02:08;;;;;;;75.33;29.00;;;;;;;-5.22;64.21;101090.53;121348;1141;104467;-79
2021/01/20 08:04:38;;;;;;;71.17;30.27;;;;;;;-5.17;64.40;101090.30;121197;1141;104359;-77
2021/01/20 08:07:10;;;;;;;77.87;33.03;;;;;;;-5.08;64.52;101091.27;121485;1140;104393;-79
2021/01/20 08:09:42;;;;;;;72.83;31.63;;;;;;;-4.98;64.56;101092.26;121181;1141;104511;-77
2021/01/20 08:12:18;;;;;;;84.07;33.20;;;;;;;-4.91;64.43;101095.64;121730;1141;104492;-78
2021/01/20 08:14:48;;;;;;;74.30;29.00;;;;;;;-4.79;64.51;101093.45;121030;1141;104364;-79
2021/01/20 08:17:20;;;;;;;89.95;35.85;;;;;;;-4.70;64.49;101099.55;122452;1139;104441;-80
2021/01/20 08:19:57;;;;;;;76.93;32.10;;;;;;;-4.56;64.46;101110.34;121208;1141;104376;-79
2021/01/20 08:22:28;;;;;;;76.60;30.00;;;;;;;-4.49;64.43;101104.20;122499;1139;102030;-76
2021/01/20 08:24:57;;;;;;;80.47;34.30;;;;;;;-4.39;64.39;101102.77;121412;1141;104377;-78
2021/01/20 08:27:30;;;;;;;88.70;35.30;;;;;;;-4.25;64.35;101093.06;120984;1141;104549;-81
2021/01/20 08:30:04;;;;;;;78.40;33.93;;;;;;;-4.16;64.48;101089.79;121351;1141;104340;-78
2021/01/20 08:32:56;;;;;;;63.30;26.50;;;;;;;-4.07;64.47;101086.34;121361;1141;104367;-80
2021/01/20 08:35:36;;;;;;;74.03;30.60;;;;;;;-4.06;64.11;101085.61;121033;1141;104371;-82
2021/01/20 08:38:06;;;;;;;73.37;29.47;;;;;;;-3.99;64.29;101077.78;121432;1141;104466;-79
2021/01/20 08:40:36;;;;;;;79.67;33.60;;;;;;;-3.91;64.24;101081.13;121048;1141;104397;-78
2021/01/20 08:43:09;;;;;;;74.23;31.03;;;;;;;-3.87;64.42;101081.60;121183;1141;104438;-80
2021/01/20 08:45:42;;;;;;;76.43;32.50;;;;;;;-3.82;64.20;101080.44;121253;1141;104423;-79
2021/01/20 08:48:13;;;;;;;76.07;32.38;;;;;;;-3.78;64.52;101075.62;121168;1141;104370;-77
2021/01/20 08:50:44;;;;;;;89.50;35.40;;;;;;;-3.75;64.36;101071.70;121355;1141;104320;-78
2021/01/20 08:53:25;;;;;;;80.00;34.30;;;;;;;-3.69;64.71;101074.88;122459;1141;102047;-78
2021/01/20 08:55:56;;;;;;;75.63;30.50;;;;;;;-3.60;64.42;101059.49;121433;1141;104523;-78
2021/01/20 08:58:28;;;;;;;80.23;34.67;;;;;;;-3.55;64.53;101068.58;121385;1141;104356;-79
2021/01/20 09:01:00;;;;;;;84.80;36.60;;;;;;;-3.49;64.18;101065.70;121476;1141;104345;-81
2021/01/20 09:03:31;;;;;;;86.97;34.70;;;;;;;-3.44;64.65;101054.27;121113;1141;104371;-78
2021/01/20 09:06:02;;;;;;;82.90;36.60;;;;;;;-3.37;64.60;101063.47;121081;1141;104346;-80
2021/01/20 09:08:37;;;;;;;83.57;37.13;;;;;;;-3.33;64.54;101055.34;121752;1141;104458;-80
2021/01/20 09:11:07;;;;;;;89.90;37.23;;;;;;;-3.26;64.11;101056.10;122521;1141;102113;-78
2021/01/20 09:13:36;;;;;;;82.07;35.97;;;;;;;-3.20;64.85;101049.75;123339;1139;102119;-78
2021/01/20 09:16:12;;;;;;;86.90;35.70;;;;;;;-3.15;64.66;101051.11;122187;1141;104326;-78
2021/01/20 09:18:45;;;;;;;81.97;34.97;;;;;;;-3.07;64.62;101053.69;121353;1141;104338;-77
2021/01/20 09:21:14;;;;;;;82.60;36.17;;;;;;;-2.95;63.92;101046.26;120995;1141;104366;-79
2021/01/20 09:23:46;;;;;;;81.00;35.00;;;;;;;-2.85;63.97;101042.02;121598;1141;104377;-81
2021/01/20 09:26:15;;;;;;;94.03;38.10;;;;;;;-2.71;64.24;101044.30;121294;1141;104345;-75
2021/01/20 09:28:44;;;;;;;82.10;33.57;;;;;;;-2.61;64.89;101033.23;121509;1141;104343;-77
2021/01/20 09:31:16;;;;;;;79.47;36.10;;;;;;;-2.56;64.11;101026.87;121428;1141;104335;-81
2021/01/20 09:33:45;;;;;;;94.23;38.33;;;;;;;-2.49;65.19;101023.21;121297;1141;104349;-80
2021/01/20 09:36:27;;;;;;;82.23;34.70;;;;;;;-2.45;64.39;101017.63;121222;1141;104442;-79
2021/01/20 09:38:59;;;;;;;88.53;36.10;;;;;;;-2.46;64.41;101021.86;121004;1141;104367;-80
2021/01/20 09:41:29;;;;;;;88.57;37.43;;;;;;;-2.41;64.23;101018.06;121326;1141;104495;-80
2021/01/20 09:44:02;;;;;;;80.07;34.00;;;;;;;-2.32;64.50;101012.90;120928;1141;104415;-80
2021/01/20 09:46:32;;;;;;;89.70;36.03;;;;;;;-2.31;64.96;101014.69;121307;1141;104492;-78
2021/01/20 09:49:03;;;;;;;87.80;39.77;;;;;;;-2.24;65.05;101004.23;121407;1141;104874;-80
2021/01/20 09:51:33;;;;;;;81.93;34.33;;;;;;;-2.10;64.07;100995.26;120977;1141;104484;-78
2021/01/20 09:54:10;;;;;;;77.43;32.10;;;;;;;-1.98;65.22;100990.34;120955;1141;104492;-82
2021/01/20 09:56:43;;;;;;;79.87;33.97;;;;;;;-1.90;64.81;100989.41;121333;1141;104788;-78
2021/01/20 09:59:53;;;;;;;85.60;35.05;;;;;;;-1.84;63.74;100987.41;121337;1141;104458;-79
2021/01/20 10:02:29;;;;;;;85.00;35.00;;;;;;;-1.72;65.24;100989.29;120896;1141;104364;-81
2021/01/20 10:04:58;;;;;;;96.33;40.43;;;;;;;-1.61;64.76;100991.17;120895;1141;104400;-76
2021/01/20 10:07:28;;;;;;;94.23;40.50;;;;;;;-1.56;63.75;100991.59;121154;1141;104377;-75
2021/01/20 10:09:58;;;;;;;98.30;38.95;;;;;;;-1.52;63.78;100988.55;121253;1141;104431;-75
2021/01/20 10:12:28;;;;;;;89.00;39.80;;;;;;;-1.43;65.08;100978.17;121483;1141;104479;-78
2021/01/20 10:14:57;;;;;;;86.65;37.75;;;;;;;-1.37;63.91;100974.50;121248;1141;104342;-76
2021/01/20 10:17:27;;;;;;;87.63;40.23;;;;;;;-1.31;63.97;100980.21;121004;1141;104359;-76
2021/01/20 10:20:01;;;;;;;84.03;37.57;;;;;;;-1.31;63.58;100969.91;121019;1141;104374;-79
2021/01/20 10:22:32;;;;;;;92.03;39.20;;;;;;;-1.32;63.48;100978.39;121132;1141;104477;-80
2021/01/20 10:25:05;;;;;;;92.87;40.40;;;;;;;-1.29;63.90;100978.67;121005;1142;104439;-80
2021/01/20 10:27:35;;;;;;;83.63;35.23;;;;;;;-1.25;64.63;100971.22;121237;1143;104379;-80
2021/01/20 10:30:06;;;;;;;92.60;39.53;;;;;;;-1.22;64.02;100964.66;121029;1143;104478;-79
2021/01/20 10:32:36;;;;;;;90.43;39.67;;;;;;;-1.18;63.55;100947.84;120870;1143;104543;-81
2021/01/20 10:35:08;;;;;;;93.60;37.50;;;;;;;-1.13;64.52;100937.16;120915;1143;104514;-78
2021/01/20 10:37:38;;;;;;;84.63;36.97;;;;;;;-1.06;64.54;100929.98;123138;1142;102164;-79
2021/01/20 10:40:11;;;;;;;87.07;39.10;;;;;;;-1.02;64.59;100922.66;121691;1143;103327;-80
2021/01/20 10:42:42;;;;;;;76.43;32.23;;;;;;;-0.96;63.67;100928.36;122945;1142;102116;-79
2021/01/20 10:45:13;;;;;;;77.23;31.80;;;;;;;-0.88;64.58;100929.03;122519;1142;103433;-78
2021/01/20 10:47:49;;;;;;;84.20;35.90;;;;;;;-0.79;63.55;100927.27;122911;1142;102080;-78
2021/01/20 10:50:19;;;;;;;72.30;32.87;;;;;;;-0.76;64.82;100929.22;122994;1143;102174;-80
2021/01/20 10:52:49;;;;;;;68.60;29.97;;;;;;;-0.76;64.09;100927.53;122352;1150;102065;-81
2021/01/20 10:55:19;;;;;;;65.03;28.83;;;;;;;-0.70;63.99;100929.76;123122;1142;101969;-81
2021/01/20 10:57:49;;;;;;;60.83;26.37;;;;;;;-0.64;63.50;100922.56;121656;1141;103123;-79
2021/01/20 11:00:19;;;;;;;70.13;31.20;;;;;;;-0.61;63.87;100929.63;121381;1141;104345;-81
2021/01/20 11:02:48;;;;;;;60.47;26.10;;;;;;;-0.56;63.99;100928.38;121723;1139;104409;-81
2021/01/20 11:05:20;;;;;;;68.13;28.37;;;;;;;-0.39;63.66;100932.39;123294;1140;102017;-81
2021/01/20 11:07:53;;;;;;;83.77;36.50;;;;;;;-0.23;63.44;100926.89;122910;1141;102237;-79
2021/01/20 11:10:22;;;;;;;72.50;32.07;;;;;;;-0.05;63.49;100931.05;122292;1141;103102;-79
2021/01/20 11:12:54;;;;;;;66.03;30.13;;;;;;;0.07;63.67;100927.69;121134;1141;104639;-80
2021/01/20 11:15:25;;;;;;;72.93;31.07;;;;;;;0.15;63.95;100932.70;120798;1141;104464;-78
2021/01/20 11:17:59;;;;;;;69.33;29.73;;;;;;;0.29;63.07;100930.38;122416;1141;102102;-81
2021/01/20 11:20:28;;;;;;;75.20;31.33;;;;;;;0.46;63.90;100930.09;122425;1148;102098;-80
2021/01/20 11:22:57;;;;;;;72.67;30.13;;;;;;;0.64;63.78;100925.55;122416;1141;103505;-81
2021/01/20 11:25:27;;;;;;;63.63;28.63;;;;;;;0.77;63.68;100931.73;123261;1139;102036;-79